createdAt,value
2023-04-09T00:00:33.762Z,99439.64
2023-04-09T00:03:51.853Z,99444.07
2023-04-09T00:07:08.310Z,99438.82
2023-04-09T00:10:24.979Z,99446.50
2023-04-09T00:13:41.465Z,99448.27
2023-04-09T00:16:57.886Z,99454.86
2023-04-09T00:20:16.926Z,99447.22
2023-04-09T00:23:33.282Z,99442.09
2023-04-09T00:33:21.634Z,99454.02
2023-04-09T00:36:37.706Z,99444.08
2023-04-09T00:39:54.071Z,99443.61
2023-04-09T00:43:10.746Z,99447.91
2023-04-09T00:46:27.597Z,99444.92
2023-04-09T00:49:45.516Z,99443.13
2023-04-09T00:53:02.331Z,99437.28
2023-04-09T00:56:22.524Z,99446.14
2023-04-09T00:59:40.586Z,99440.40
2023-04-09T01:02:58.136Z,99437.55
2023-04-09T01:06:21.758Z,99431.54
2023-04-09T01:09:43.319Z,99438.33
2023-04-09T01:16:18.462Z,99441.81
2023-04-09T01:19:43.423Z,99434.06
2023-04-09T01:23:07.362Z,99436.00
2023-04-09T01:26:35.529Z,99433.73
2023-04-09T01:29:55.845Z,99434.81
2023-04-09T01:33:14.106Z,99425.14
2023-04-09T01:36:32.810Z,99429.08
2023-04-09T01:39:50.148Z,99424.16
2023-04-09T01:43:09.074Z,99432.13
2023-04-09T01:46:27.190Z,99432.48
2023-04-09T01:49:47.731Z,99441.77
2023-04-09T01:53:04.561Z,99438.29
2023-04-09T01:56:20.880Z,99447.16
2023-04-09T01:59:37.418Z,99443.31
2023-04-09T02:03:00.090Z,99447.16
2023-04-09T02:06:21.963Z,99447.52
2023-04-09T02:09:42.924Z,99448.23
2023-04-09T02:13:01.337Z,99449.19
2023-04-09T02:16:19.375Z,99452.55
2023-04-09T02:19:48.604Z,99456.14
2023-04-09T02:23:04.873Z,99456.87
2023-04-09T02:26:23.078Z,99458.19
2023-04-09T02:29:39.744Z,99459.13
2023-04-09T02:32:56.154Z,99451.88
2023-04-09T02:36:12.987Z,99445.45
2023-04-09T02:39:29.823Z,99449.73
2023-04-09T02:42:46.099Z,99440.68
2023-04-09T02:46:02.641Z,99440.06
2023-04-09T02:49:19.527Z,99443.28
2023-04-09T02:52:35.954Z,99438.75
2023-04-09T02:55:52.462Z,99445.29
2023-04-09T03:02:24.978Z,99449.33
2023-04-09T03:05:41.969Z,99447.55
2023-04-09T03:08:58.422Z,99443.98
2023-04-09T03:12:15.198Z,99445.52
2023-04-09T03:15:31.585Z,99450.28
2023-04-09T03:18:48.034Z,99442.40
2023-04-09T03:22:04.475Z,99448.47
2023-04-09T03:25:21.884Z,99443.94
2023-04-09T03:28:40.433Z,99445.84
2023-04-09T03:31:56.893Z,99451.69
2023-04-09T03:35:14.279Z,99449.06
2023-04-09T03:38:31.309Z,99451.55
2023-04-09T03:41:49.851Z,99447.16
2023-04-09T03:45:09.023Z,99437.11
2023-04-09T03:48:27.183Z,99441.27
2023-04-09T03:51:45.463Z,99437.11
2023-04-09T03:55:02.281Z,99446.89
2023-04-09T03:58:19.782Z,99443.55
2023-04-09T04:01:37.957Z,99446.56
2023-04-09T04:04:56.424Z,99448.80
2023-04-09T04:08:14.833Z,99454.90
2023-04-09T04:11:31.588Z,99453.81
2023-04-09T04:14:48.014Z,99450.83
2023-04-09T04:18:06.363Z,99462.88
2023-04-09T04:21:28.176Z,99452.23
2023-04-09T04:24:46.962Z,99455.58
2023-04-09T04:31:21.276Z,99463.28
2023-04-09T04:34:38.980Z,99465.41
2023-04-09T04:38:02.523Z,99462.99
2023-04-09T04:41:20.725Z,99464.27
2023-04-09T04:44:38.772Z,99466.75
2023-04-09T04:47:59.799Z,99469.28
2023-04-09T04:51:18.630Z,99467.23
2023-04-09T04:54:37.584Z,99475.67
2023-04-09T04:57:54.324Z,99475.56
2023-04-09T05:01:12.459Z,99469.08
2023-04-09T05:04:29.366Z,99473.11
2023-04-09T05:07:46.528Z,99478.27
2023-04-09T05:11:03.440Z,99478.00
2023-04-09T05:17:37.067Z,99474.78
2023-04-09T05:20:54.582Z,99477.10
2023-04-09T05:24:13.361Z,99477.34
2023-04-09T05:27:30.332Z,99473.31
2023-04-09T05:30:48.646Z,99478.56
2023-04-09T05:34:06.314Z,99483.82
2023-04-09T05:37:33.536Z,99486.45
2023-04-09T05:40:49.917Z,99488.13
2023-04-09T05:44:07.948Z,99488.63
2023-04-09T05:47:25.839Z,99501.64
2023-04-09T05:50:54.064Z,99496.14
2023-04-09T05:54:06.501Z,99499.80
2023-04-09T05:57:24.657Z,99499.98
2023-04-09T06:00:43.100Z,99506.41
2023-04-09T06:03:59.898Z,99495.69
2023-04-09T06:07:18.469Z,99504.92
2023-04-09T06:10:35.197Z,99502.60
2023-04-09T06:13:52.004Z,99511.13
2023-04-09T06:17:09.748Z,99518.41
2023-04-09T06:20:26.638Z,99518.45
2023-04-09T06:23:44.390Z,99511.70
2023-04-09T06:27:00.693Z,99511.16
2023-04-09T06:30:20.007Z,99520.52
2023-04-09T06:33:36.562Z,99520.63
2023-04-09T06:36:53.024Z,99524.56
2023-04-09T06:40:09.969Z,99525.28
2023-04-09T06:43:26.912Z,99532.64
2023-04-09T06:46:43.541Z,99527.09
2023-04-09T06:49:59.915Z,99532.94
2023-04-09T06:53:16.801Z,99533.50
2023-04-09T06:56:33.324Z,99533.07
2023-04-09T06:59:49.442Z,99537.69
2023-04-09T07:03:06.402Z,99542.82
2023-04-09T07:06:23.134Z,99541.42
2023-04-09T07:09:39.396Z,99546.44
2023-04-09T07:12:56.340Z,99547.92
2023-04-09T07:16:13.426Z,99541.78
2023-04-09T07:19:29.992Z,99549.45
2023-04-09T07:22:47.250Z,99547.07
2023-04-09T07:26:04.143Z,99541.91
2023-04-09T07:29:21.688Z,99552.35
2023-04-09T07:32:38.824Z,99561.02
2023-04-09T07:35:56.080Z,99556.27
2023-04-09T07:39:12.888Z,99559.63
2023-04-09T07:42:29.290Z,99566.41
2023-04-09T07:45:48.176Z,99571.09
2023-04-09T07:49:04.505Z,99580.55
2023-04-09T07:52:21.077Z,99578.11
2023-04-09T07:55:37.622Z,99585.00
2023-04-09T07:58:55.839Z,99580.91
2023-04-09T08:02:15.244Z,99583.86
2023-04-09T08:05:32.074Z,99576.04
2023-04-09T08:08:48.638Z,99577.69
2023-04-09T08:12:05.076Z,99578.30
2023-04-09T08:15:48.105Z,99583.59
2023-04-09T08:19:05.406Z,99584.06
2023-04-09T08:22:21.801Z,99592.33
2023-04-09T08:25:44.399Z,99583.72
2023-04-09T08:29:00.918Z,99587.48
2023-04-09T08:32:18.083Z,99587.27
2023-04-09T08:35:35.788Z,99588.03
2023-04-09T08:38:52.930Z,99586.05
2023-04-09T08:42:13.596Z,99585.88
2023-04-09T08:45:30.411Z,99583.86
2023-04-09T08:48:47.749Z,99579.63
2023-04-09T08:52:05.639Z,99575.09
2023-04-09T08:55:22.585Z,99583.17
2023-04-09T08:58:39.076Z,99583.69
2023-04-09T09:01:55.707Z,99578.46
2023-04-09T09:05:14.529Z,99578.94
2023-04-09T09:08:35.146Z,99585.45
2023-04-09T09:11:54.549Z,99574.51
2023-04-09T09:15:12.787Z,99582.63
2023-04-09T09:18:32.804Z,99583.75
2023-04-09T09:21:49.621Z,99580.46
2023-04-09T09:25:05.933Z,99578.83
2023-04-09T09:28:23.709Z,99579.35
2023-04-09T09:31:45.178Z,99581.53
2023-04-09T09:35:13.078Z,99583.97
2023-04-09T09:38:29.761Z,99582.42
2023-04-09T09:41:47.224Z,99580.84
2023-04-09T09:45:05.063Z,99577.00
2023-04-09T09:48:22.564Z,99579.59
2023-04-09T09:51:42.734Z,99567.88
2023-04-09T09:55:01.300Z,99569.80
2023-04-09T09:58:24.656Z,99566.63
2023-04-09T10:01:41.642Z,99570.84
2023-04-09T10:04:59.570Z,99556.06
2023-04-09T10:08:17.929Z,99557.87
2023-04-09T10:11:34.564Z,99559.52
2023-04-09T10:14:52.868Z,99561.63
2023-04-09T10:18:09.877Z,99560.09
2023-04-09T10:21:34.435Z,99554.78
2023-04-09T10:24:52.297Z,99548.36
2023-04-09T10:28:19.276Z,99549.03
2023-04-09T10:31:35.827Z,99549.13
2023-04-09T10:34:55.688Z,99543.96
2023-04-09T10:38:16.572Z,99545.03
2023-04-09T10:41:36.502Z,99552.50
2023-04-09T10:44:53.129Z,99547.36
2023-04-09T10:48:14.057Z,99546.86
2023-04-09T10:51:30.613Z,99546.92
2023-04-09T10:54:55.382Z,99551.26
2023-04-09T10:58:14.035Z,99550.09
2023-04-09T11:01:33.408Z,99542.47
2023-04-09T11:04:55.810Z,99544.31
2023-04-09T11:08:18.469Z,99535.50
2023-04-09T11:11:38.032Z,99539.69
2023-04-09T11:14:54.643Z,99541.67
2023-04-09T11:18:13.058Z,99540.67
2023-04-09T11:21:29.721Z,99543.01
2023-04-09T11:24:52.445Z,99538.69
2023-04-09T11:28:11.070Z,99539.19
2023-04-09T11:31:27.564Z,99540.67
2023-04-09T11:34:44.112Z,99531.08
2023-04-09T11:38:00.723Z,99531.58
2023-04-09T11:41:17.411Z,99534.91
2023-04-09T11:44:33.913Z,99533.38
2023-04-09T11:47:52.116Z,99541.06
2023-04-09T11:51:10.139Z,99531.75
2023-04-09T11:54:26.670Z,99537.03
2023-04-09T11:57:53.943Z,99538.52
2023-04-09T12:01:10.585Z,99543.15
2023-04-09T12:04:31.640Z,99535.17
2023-04-09T12:07:56.328Z,99545.58
2023-04-09T12:11:17.687Z,99550.74
2023-04-09T12:14:35.750Z,99546.44
2023-04-09T12:17:57.687Z,99546.11
2023-04-09T12:21:14.357Z,99548.59
2023-04-09T12:24:32.585Z,99547.11
2023-04-09T12:27:52.096Z,99549.13
2023-04-09T12:31:08.380Z,99535.98
2023-04-09T12:34:24.684Z,99536.65
2023-04-09T12:37:41.245Z,99538.83
2023-04-09T12:40:57.626Z,99535.98
2023-04-09T12:44:14.086Z,99536.65
2023-04-09T12:47:30.371Z,99528.70
2023-04-09T12:50:46.866Z,99532.84
2023-04-09T12:54:04.953Z,99533.33
2023-04-09T12:57:21.359Z,99532.02
2023-04-09T13:00:37.848Z,99530.99
2023-04-09T13:03:55.011Z,99528.02
2023-04-09T13:07:13.082Z,99535.98
2023-04-09T13:10:29.611Z,99531.97
2023-04-09T13:13:46.635Z,99524.85
2023-04-09T13:17:03.103Z,99528.32
2023-04-09T13:20:22.117Z,99528.99
2023-04-09T13:23:38.379Z,99529.36
2023-04-09T13:27:00.541Z,99530.00
2023-04-09T13:30:19.699Z,99533.87
2023-04-09T13:33:37.072Z,99529.02
2023-04-09T13:36:53.459Z,99530.48
2023-04-09T13:40:10.184Z,99527.51
2023-04-09T13:43:29.171Z,99527.15
2023-04-09T13:46:45.942Z,99523.55
2023-04-09T13:50:02.649Z,99523.06
2023-04-09T13:53:18.689Z,99521.03
2023-04-09T13:56:35.129Z,99523.88
2023-04-09T13:59:52.587Z,99524.69
2023-04-09T14:03:09.060Z,99519.66
2023-04-09T14:06:25.386Z,99521.15
2023-04-09T14:09:41.636Z,99519.47
2023-04-09T14:13:00.244Z,99510.98
2023-04-09T14:16:18.812Z,99514.35
2023-04-09T14:19:35.772Z,99513.91
2023-04-09T14:22:52.564Z,99506.93
2023-04-09T14:26:09.763Z,99509.72
2023-04-09T14:29:26.486Z,99500.25
2023-04-09T14:32:44.180Z,99504.77
2023-04-09T14:36:00.944Z,99504.89
2023-04-09T14:39:20.430Z,99502.23
2023-04-09T14:42:37.478Z,99504.47
2023-04-09T14:45:55.227Z,99497.12
2023-04-09T14:49:13.865Z,99496.81
2023-04-09T14:52:31.396Z,99488.84
2023-04-09T14:55:48.321Z,99493.80
2023-04-09T14:59:05.262Z,99484.83
2023-04-09T15:02:21.953Z,99492.80
2023-04-09T15:05:38.703Z,99486.31
2023-04-09T15:08:56.246Z,99484.14
2023-04-09T15:12:14.384Z,99483.33
2023-04-09T15:15:31.066Z,99488.46
2023-04-09T15:18:49.375Z,99485.14
2023-04-09T15:22:05.988Z,99485.82
2023-04-09T15:25:22.306Z,99489.66
2023-04-09T15:28:38.960Z,99479.02
2023-04-09T15:31:55.568Z,99479.56
2023-04-09T15:35:14.622Z,99476.74
2023-04-09T15:38:30.984Z,99480.06
2023-04-09T15:41:48.102Z,99479.93
2023-04-09T15:45:05.127Z,99483.73
2023-04-09T15:48:21.719Z,99477.95
2023-04-09T15:51:37.961Z,99478.59
2023-04-09T15:54:54.265Z,99481.92
2023-04-09T15:58:10.518Z,99483.27
2023-04-09T16:01:29.195Z,99476.30
2023-04-09T16:04:45.721Z,99482.60
2023-04-09T16:08:03.064Z,99484.94
2023-04-09T16:11:20.991Z,99481.97
2023-04-09T16:14:37.354Z,99489.94
2023-04-09T16:17:53.578Z,99486.12
2023-04-09T16:21:13.651Z,99490.61
2023-04-09T16:24:32.922Z,99487.28
2023-04-09T16:27:55.965Z,99490.75
2023-04-09T16:31:12.531Z,99496.91
2023-04-09T16:34:29.050Z,99485.80
2023-04-09T16:37:45.456Z,99494.75
2023-04-09T16:41:02.310Z,99489.62
2023-04-09T16:44:18.625Z,99492.09
2023-04-09T16:47:35.108Z,99487.95
2023-04-09T16:50:51.717Z,99488.13
2023-04-09T16:54:10.445Z,99493.61
2023-04-09T16:57:26.985Z,99493.76
2023-04-09T17:00:46.647Z,99495.10
2023-04-09T17:04:04.014Z,99495.10
2023-04-09T17:07:21.113Z,99494.43
2023-04-09T17:10:38.109Z,99501.74
2023-04-09T17:13:55.477Z,99502.08
2023-04-09T17:17:12.946Z,99498.27
2023-04-09T17:20:30.958Z,99501.58
2023-04-09T17:23:48.065Z,99507.88
2023-04-09T17:27:05.383Z,99502.22
2023-04-09T17:30:22.297Z,99499.57
2023-04-09T17:33:39.583Z,99505.88
2023-04-09T17:36:58.189Z,99510.19
2023-04-09T17:40:19.773Z,99519.64
2023-04-09T17:43:37.675Z,99523.78
2023-04-09T17:46:54.697Z,99519.31
2023-04-09T17:50:13.205Z,99526.25
2023-04-09T17:53:30.995Z,99527.89
2023-04-09T17:56:47.928Z,99537.50
2023-04-09T18:00:05.110Z,99534.52
2023-04-09T18:03:22.549Z,99536.86
2023-04-09T18:06:39.935Z,99543.31
2023-04-09T18:09:56.489Z,99546.25
2023-04-09T18:13:13.391Z,99546.55
2023-04-09T18:16:29.819Z,99543.16
2023-04-09T18:19:46.903Z,99547.55
2023-04-09T18:23:03.230Z,99540.05
2023-04-09T18:26:20.361Z,99548.09
2023-04-09T18:29:37.355Z,99550.49
2023-04-09T18:32:54.364Z,99554.05
2023-04-09T18:36:12.349Z,99555.69
2023-04-09T18:39:31.787Z,99566.04
2023-04-09T18:42:48.326Z,99567.70
2023-04-09T18:46:05.445Z,99573.61
2023-04-09T18:49:22.613Z,99571.42
2023-04-09T18:52:40.413Z,99559.65
2023-04-09T18:55:56.874Z,99563.36
2023-04-09T18:59:13.193Z,99572.80
2023-04-09T19:02:30.219Z,99575.61
2023-04-09T19:05:46.793Z,99561.84
2023-04-09T19:09:03.466Z,99571.30
2023-04-09T19:12:20.466Z,99573.56
2023-04-09T19:15:39.321Z,99574.77
2023-04-09T19:18:55.918Z,99566.63
2023-04-09T19:22:12.617Z,99575.22
2023-04-09T19:25:29.834Z,99569.11
2023-04-09T19:28:46.666Z,99575.22
2023-04-09T19:32:03.554Z,99576.23
2023-04-09T19:35:20.553Z,99578.71
2023-04-09T19:38:37.416Z,99578.02
2023-04-09T19:41:54.014Z,99583.22
2023-04-09T19:45:11.555Z,99586.77
2023-04-09T19:48:28.298Z,99581.64
2023-04-09T19:51:44.690Z,99583.75
2023-04-09T19:55:06.052Z,99585.13
2023-04-09T19:58:22.582Z,99587.39
2023-04-09T20:01:39.417Z,99588.29
2023-04-09T20:04:56.094Z,99592.34
2023-04-09T20:08:15.717Z,99593.03
2023-04-09T20:11:31.935Z,99586.46
2023-04-09T20:14:50.362Z,99594.39
2023-04-09T20:18:07.038Z,99590.23
2023-04-09T20:21:24.119Z,99589.84
2023-04-09T20:24:40.461Z,99586.52
2023-04-09T20:27:58.162Z,99585.97
2023-04-09T20:31:14.909Z,99585.03
2023-04-09T20:34:32.456Z,99592.03
2023-04-09T20:37:50.046Z,99581.77
2023-04-09T20:41:06.595Z,99584.72
2023-04-09T20:44:23.394Z,99580.55
2023-04-09T20:47:39.756Z,99591.13
2023-04-09T20:50:57.649Z,99584.31
2023-04-09T20:54:14.207Z,99584.59
2023-04-09T20:57:31.171Z,99581.25
2023-04-09T21:00:47.525Z,99578.91
2023-04-09T21:04:06.437Z,99577.09
2023-04-09T21:07:23.013Z,99584.05
2023-04-09T21:10:39.357Z,99588.48
2023-04-09T21:13:55.915Z,99583.20
2023-04-09T21:17:12.304Z,99579.34
2023-04-09T21:20:29.229Z,99588.26
2023-04-09T21:23:45.691Z,99587.84
2023-04-09T21:27:02.648Z,99586.41
2023-04-09T21:30:20.416Z,99584.87
2023-04-09T21:33:37.118Z,99590.55
2023-04-09T21:36:53.670Z,99592.06
2023-04-09T21:40:10.449Z,99595.83
2023-04-09T21:43:26.672Z,99588.20
2023-04-09T21:46:45.808Z,99592.70
2023-04-09T21:50:02.307Z,99593.27
2023-04-09T21:53:19.899Z,99598.00
2023-04-09T21:56:36.309Z,99598.27
2023-04-09T21:59:52.840Z,99598.44
2023-04-09T22:03:09.323Z,99597.06
2023-04-09T22:06:25.808Z,99599.41
2023-04-09T22:09:42.168Z,99597.31
2023-04-09T22:12:58.785Z,99605.40
2023-04-09T22:16:17.943Z,99593.58
2023-04-09T22:19:37.036Z,99599.41
2023-04-09T22:22:53.404Z,99592.91
2023-04-09T22:26:13.442Z,99591.94
2023-04-09T22:29:29.737Z,99601.08
2023-04-09T22:32:45.985Z,99598.59
2023-04-09T22:36:03.138Z,99591.23
2023-04-09T22:39:19.577Z,99586.92
2023-04-09T22:42:35.912Z,99592.20
2023-04-09T22:45:58.233Z,99592.75
2023-04-09T22:49:14.624Z,99594.42
2023-04-09T22:52:31.005Z,99591.94
2023-04-09T22:55:47.821Z,99589.14
2023-04-09T22:59:04.080Z,99591.48
2023-04-09T23:02:20.776Z,99593.47
2023-04-09T23:05:37.410Z,99589.57
2023-04-09T23:08:54.167Z,99589.42
2023-04-09T23:12:11.331Z,99596.11
2023-04-09T23:15:27.871Z,99589.88
2023-04-09T23:18:45.934Z,99587.50
2023-04-09T23:22:02.201Z,99586.13
2023-04-09T23:25:19.605Z,99593.77
2023-04-09T23:28:36.241Z,99596.41
2023-04-09T23:31:52.732Z,99589.46
2023-04-09T23:35:09.669Z,99594.73
2023-04-09T23:38:28.284Z,99582.52
2023-04-09T23:41:45.073Z,99586.97
2023-04-09T23:45:03.113Z,99587.79
2023-04-09T23:48:20.161Z,99572.26
2023-04-09T23:51:36.953Z,99568.77
2023-04-09T23:55:00.853Z,99571.14
2023-04-09T23:58:18.638Z,99567.94
